Ojibwa, Wisconsin
Current Conditions -  °F | °C
As of 9:55 AM on Saturday 20 Dec 2014 (Local Time) from KRCX Reporting Station
Overcast Overcast  
Wind Chill: -6°   Ceiling: 1100
Heat Index: -2°   Visibility: 7mi
Dew Point: -4°   Wind: 6mph
Humidity: 86%   Direction: 160°SSE
Pressure: 30.2"   Gusts: NA
Location:  45.8°N, 91.12°W
Report Text: KRCX 201555Z AUTO 16005KT 7SM BKN011 OVC020 M02/M04 A3020 RMK AO2 T10211041
Loading
Personal Weather Stations






























Interactive Weather Map New forecast layout! Learn more

10-Day Weather Forecast

Advertisements
Track Severe Weather on mobile